createdAt,value
2018-02-20T00:02:25.383Z,11.16
2018-02-20T00:04:54.171Z,10.85
2018-02-20T00:07:22.611Z,10.57
2018-02-20T00:09:51.123Z,10.68
2018-02-20T00:12:20.651Z,10.53
2018-02-20T00:14:49.084Z,10.66
2018-02-20T00:17:17.549Z,10.60
2018-02-20T00:19:46.035Z,10.86
2018-02-20T00:22:16.346Z,10.61
2018-02-20T00:24:45.026Z,10.67
2018-02-20T00:27:13.835Z,10.70
2018-02-20T00:29:42.281Z,10.93
2018-02-20T00:32:10.718Z,10.70
2018-02-20T00:34:40.369Z,10.85
2018-02-20T00:37:08.798Z,10.56
2018-02-20T00:39:38.005Z,10.58
2018-02-20T00:42:07.271Z,10.39
2018-02-20T00:44:35.711Z,10.35
2018-02-20T00:47:04.156Z,10.47
2018-02-20T00:49:33.604Z,10.37
2018-02-20T00:52:02.035Z,10.54
2018-02-20T00:54:31.246Z,10.39
2018-02-20T00:57:00.890Z,10.30
2018-02-20T00:59:29.324Z,10.78
2018-02-20T01:01:58.534Z,10.49
2018-02-20T01:04:27.969Z,10.52
2018-02-20T01:06:56.399Z,10.47
2018-02-20T01:09:25.635Z,10.48
2018-02-20T01:11:54.427Z,10.36
2018-02-20T01:14:22.858Z,10.61
2018-02-20T01:16:51.286Z,10.27
2018-02-20T01:19:19.827Z,10.52
2018-02-20T01:21:48.255Z,10.10
2018-02-20T01:24:16.691Z,10.21
2018-02-20T01:26:45.434Z,10.40
2018-02-20T01:29:13.873Z,10.17
2018-02-20T01:31:43.074Z,10.13
2018-02-20T01:34:12.307Z,10.60
2018-02-20T01:36:40.742Z,10.29
2018-02-20T01:39:09.955Z,10.68
2018-02-20T01:41:39.186Z,10.51
2018-02-20T01:44:07.626Z,10.69
2018-02-20T01:46:36.827Z,10.63
2018-02-20T01:49:06.067Z,10.55
2018-02-20T01:51:34.514Z,10.46
2018-02-20T01:54:02.947Z,10.33
2018-02-20T01:56:32.590Z,10.48
2018-02-20T01:59:01.914Z,10.69
2018-02-20T02:01:30.472Z,10.49
2018-02-20T02:03:59.895Z,10.51
2018-02-20T02:06:28.469Z,10.35
2018-02-20T02:08:57.039Z,10.79
2018-02-20T02:11:26.501Z,10.67
2018-02-20T02:13:55.058Z,10.67
2018-02-20T02:16:23.617Z,10.94
2018-02-20T02:18:52.987Z,10.69
2018-02-20T02:21:21.554Z,10.99
2018-02-20T02:23:50.175Z,10.82
2018-02-20T02:26:19.645Z,10.94
2018-02-20T02:28:48.228Z,10.59
2018-02-20T02:31:16.788Z,11.17
2018-02-20T02:33:45.411Z,11.05
2018-02-20T02:36:13.969Z,10.99
2018-02-20T02:38:42.526Z,10.83
2018-02-20T02:41:11.245Z,10.82
2018-02-20T02:43:39.808Z,10.77
2018-02-20T02:46:08.370Z,10.61
2018-02-20T02:48:37.402Z,10.80
2018-02-20T02:51:05.965Z,11.25
2018-02-20T02:53:34.525Z,10.72
2018-02-20T02:56:03.133Z,10.86
2018-02-20T02:58:31.695Z,11.01
2018-02-20T03:01:00.261Z,10.69
2018-02-20T03:03:30.604Z,11.08
2018-02-20T03:05:59.214Z,10.68
2018-02-20T03:08:27.764Z,10.71
2018-02-20T03:10:56.371Z,11.13
2018-02-20T03:13:24.927Z,10.73
2018-02-20T03:15:54.249Z,10.69
2018-02-20T03:18:23.165Z,10.98
2018-02-20T03:20:51.719Z,10.83
2018-02-20T03:23:20.277Z,10.74
2018-02-20T03:25:49.654Z,10.49
2018-02-20T03:28:18.220Z,10.84
2018-02-20T03:30:46.781Z,10.67
2018-02-20T03:33:15.587Z,10.95
2018-02-20T03:35:44.280Z,10.39
2018-02-20T03:38:12.837Z,10.68
2018-02-20T03:40:41.443Z,10.69
2018-02-20T03:43:10.001Z,11.10
2018-02-20T03:45:38.560Z,10.90
2018-02-20T03:48:07.953Z,10.75
2018-02-20T03:50:37.272Z,11.28
2018-02-20T03:53:05.830Z,11.04
2018-02-20T03:55:35.211Z,10.68
2018-02-20T03:58:04.601Z,10.65
2018-02-20T04:00:33.156Z,10.27
2018-02-20T04:03:01.771Z,10.68
2018-02-20T04:05:30.329Z,10.74
2018-02-20T04:07:58.888Z,10.32
2018-02-20T04:10:27.497Z,10.45
2018-02-20T04:12:56.063Z,10.54
2018-02-20T04:15:25.405Z,10.38
2018-02-20T04:17:54.373Z,10.87
2018-02-20T04:20:22.948Z,10.77
2018-02-20T04:22:51.506Z,10.53
2018-02-20T04:25:20.400Z,10.83
2018-02-20T04:27:49.631Z,10.65
2018-02-20T04:30:18.189Z,10.58
2018-02-20T04:32:46.795Z,10.51
2018-02-20T04:35:16.125Z,10.62
2018-02-20T04:37:45.450Z,11.03
2018-02-20T04:40:14.073Z,10.78
2018-02-20T04:42:43.396Z,10.70
2018-02-20T04:45:11.958Z,10.48
2018-02-20T04:47:40.657Z,10.76
2018-02-20T04:50:09.225Z,10.39
2018-02-20T04:52:37.776Z,10.73
2018-02-20T04:55:06.396Z,10.46
2018-02-20T04:57:34.944Z,10.32
2018-02-20T05:00:03.517Z,10.88
2018-02-20T05:02:32.924Z,10.57
2018-02-20T05:05:01.488Z,10.88
2018-02-20T05:07:30.850Z,10.88
2018-02-20T05:09:59.461Z,10.72
2018-02-20T05:12:28.020Z,10.97
2018-02-20T05:14:56.582Z,11.01
2018-02-20T05:17:25.209Z,10.91
2018-02-20T05:19:53.762Z,10.83
2018-02-20T05:22:22.317Z,10.90
2018-02-20T05:24:50.932Z,10.76
2018-02-20T05:27:19.487Z,10.33
2018-02-20T05:29:48.044Z,10.35
2018-02-20T05:32:17.408Z,10.65
2018-02-20T05:34:45.963Z,10.32
2018-02-20T05:37:15.289Z,10.48
2018-02-20T05:39:43.897Z,10.51
2018-02-20T05:42:12.453Z,10.35
2018-02-20T05:44:41.772Z,10.68
2018-02-20T05:47:11.368Z,10.51
2018-02-20T05:49:39.919Z,10.73
2018-02-20T05:52:09.244Z,10.86
2018-02-20T05:54:38.047Z,10.89
2018-02-20T05:57:06.620Z,10.73
2018-02-20T05:59:35.176Z,10.61
2018-02-20T06:02:03.877Z,10.61
2018-02-20T06:04:32.440Z,10.63
2018-02-20T06:07:01.765Z,10.65
2018-02-20T06:09:30.378Z,10.66
2018-02-20T06:11:58.956Z,10.11
2018-02-20T06:14:27.508Z,10.19
2018-02-20T06:16:56.121Z,10.64
2018-02-20T06:19:24.677Z,10.71
2018-02-20T06:21:53.226Z,10.51
2018-02-20T06:24:22.599Z,10.57
2018-02-20T06:26:51.160Z,10.67
2018-02-20T06:29:19.721Z,10.36
2018-02-20T06:31:49.329Z,10.92
2018-02-20T06:34:17.885Z,10.80
2018-02-20T06:36:46.446Z,10.36
2018-02-20T06:39:15.819Z,10.65
2018-02-20T06:41:44.385Z,11.40
2018-02-20T06:44:14.066Z,10.66
2018-02-20T06:46:42.980Z,10.44
2018-02-20T06:49:11.541Z,10.58
2018-02-20T06:51:40.096Z,10.51
2018-02-20T06:54:09.468Z,11.14
2018-02-20T06:56:38.038Z,10.86
2018-02-20T06:59:06.620Z,10.84
2018-02-20T07:01:35.372Z,10.93
2018-02-20T07:04:03.933Z,11.24
2018-02-20T07:06:32.506Z,11.54
2018-02-20T07:09:02.073Z,11.51
2018-02-20T07:11:30.633Z,11.21
2018-02-20T07:13:59.214Z,11.01
2018-02-20T07:16:27.827Z,11.09
2018-02-20T07:18:56.382Z,11.05
2018-02-20T07:21:24.934Z,11.11
2018-02-20T07:23:54.701Z,11.03
2018-02-20T07:26:23.257Z,10.71
2018-02-20T07:28:51.822Z,11.14
2018-02-20T07:31:20.696Z,11.35
2018-02-20T07:33:50.012Z,11.17
2018-02-20T07:36:18.572Z,11.05
2018-02-20T07:38:47.957Z,10.59
2018-02-20T07:41:16.525Z,10.92
2018-02-20T07:43:45.088Z,10.47
2018-02-20T07:46:13.897Z,10.64
2018-02-20T07:48:42.448Z,10.95
2018-02-20T07:51:11.006Z,11.00
2018-02-20T07:53:40.568Z,11.39
2018-02-20T07:56:09.128Z,11.37
2018-02-20T07:58:37.681Z,11.24
2018-02-20T08:01:07.052Z,11.67
2018-02-20T08:03:35.618Z,11.23
2018-02-20T08:06:04.172Z,11.01
2018-02-20T08:08:32.999Z,11.41
2018-02-20T08:11:01.582Z,10.98
2018-02-20T08:13:30.144Z,11.31
2018-02-20T08:15:59.155Z,11.25
2018-02-20T08:18:27.715Z,10.95
2018-02-20T08:20:56.273Z,11.12
2018-02-20T08:23:24.882Z,11.28
2018-02-20T08:25:53.445Z,11.63
2018-02-20T08:28:21.993Z,11.35
2018-02-20T08:30:51.384Z,11.25
2018-02-20T08:33:19.950Z,11.32
2018-02-20T08:35:48.505Z,11.37
2018-02-20T08:38:17.114Z,11.30
2018-02-20T08:40:46.470Z,10.69
2018-02-20T08:43:15.031Z,10.87
2018-02-20T08:45:44.813Z,11.26
2018-02-20T08:48:13.387Z,11.40
2018-02-20T08:50:41.948Z,10.97
2018-02-20T08:53:10.565Z,10.85
2018-02-20T08:55:39.135Z,11.03
2018-02-20T08:58:07.760Z,11.27
2018-02-20T09:00:36.721Z,11.34
2018-02-20T09:03:05.273Z,11.22
2018-02-20T09:05:33.837Z,11.01
2018-02-20T09:08:03.215Z,10.89
2018-02-20T09:10:31.791Z,11.03
2018-02-20T09:13:00.357Z,11.08
2018-02-20T09:15:29.020Z,10.89
2018-02-20T09:17:57.586Z,10.66
2018-02-20T09:20:26.155Z,10.91
2018-02-20T09:22:55.536Z,10.56
2018-02-20T09:25:24.093Z,10.59
2018-02-20T09:27:52.657Z,10.35
2018-02-20T09:30:21.269Z,10.47
2018-02-20T09:32:49.832Z,10.57
2018-02-20T09:35:18.396Z,10.57
2018-02-20T09:37:47.228Z,10.75
2018-02-20T09:40:15.843Z,10.54
2018-02-20T09:42:45.164Z,10.52
2018-02-20T09:45:14.098Z,10.40
2018-02-20T09:47:43.441Z,10.38
2018-02-20T09:50:12.009Z,10.59
2018-02-20T09:52:41.405Z,10.34
2018-02-20T09:55:11.476Z,10.67
2018-02-20T09:57:40.035Z,10.24
2018-02-20T10:00:08.817Z,10.49
2018-02-20T10:02:38.180Z,10.51
2018-02-20T10:05:06.735Z,10.51
2018-02-20T10:07:36.117Z,10.64
2018-02-20T10:10:05.519Z,10.75
2018-02-20T10:12:34.092Z,11.10
2018-02-20T10:15:03.473Z,10.94
2018-02-20T10:17:32.042Z,10.87
2018-02-20T10:20:00.614Z,10.88
2018-02-20T10:22:29.221Z,10.72
2018-02-20T10:24:57.795Z,10.69
2018-02-20T10:27:26.366Z,10.97
2018-02-20T10:29:54.993Z,10.71
2018-02-20T10:32:24.396Z,11.27
2018-02-20T10:34:53.787Z,11.47
2018-02-20T10:37:23.164Z,11.42
2018-02-20T10:39:51.736Z,11.31
2018-02-20T10:42:20.303Z,11.11
2018-02-20T10:44:48.921Z,10.86
2018-02-20T10:47:17.485Z,11.79
2018-02-20T10:49:46.040Z,11.73
2018-02-20T10:52:15.146Z,11.45
2018-02-20T10:54:43.772Z,11.27
2018-02-20T10:57:12.337Z,11.56
2018-02-20T10:59:40.965Z,11.45
2018-02-20T11:02:10.282Z,11.71
2018-02-20T11:04:38.838Z,11.94
2018-02-20T11:07:07.545Z,11.90
2018-02-20T11:09:36.108Z,11.35
2018-02-20T11:12:04.674Z,11.13
2018-02-20T11:14:34.231Z,11.31
2018-02-20T11:17:03.634Z,11.76
2018-02-20T11:19:32.185Z,11.60
2018-02-20T11:22:00.781Z,11.77
2018-02-20T11:24:29.336Z,11.98
2018-02-20T11:26:58.697Z,12.35
2018-02-20T11:29:27.474Z,12.32
2018-02-20T11:31:56.021Z,11.62
2018-02-20T11:34:24.585Z,11.44
2018-02-20T11:36:53.970Z,11.75
2018-02-20T11:39:23.299Z,11.70
2018-02-20T11:41:51.847Z,11.60
2018-02-20T11:44:20.454Z,11.61
2018-02-20T11:46:49.797Z,11.78
2018-02-20T11:49:18.344Z,11.88
2018-02-20T11:51:47.715Z,11.82
2018-02-20T11:54:16.273Z,11.73
2018-02-20T11:56:44.825Z,11.60
2018-02-20T11:59:13.644Z,11.66
2018-02-20T12:01:42.189Z,11.33
2018-02-20T12:04:10.745Z,11.25
2018-02-20T12:06:39.441Z,10.89
2018-02-20T12:09:08.759Z,11.63
2018-02-20T12:11:37.306Z,11.44
2018-02-20T12:14:05.913Z,11.64
2018-02-20T12:16:35.241Z,11.01
2018-02-20T12:19:03.800Z,11.39
2018-02-20T12:21:33.232Z,11.71
2018-02-20T12:24:01.784Z,11.67
2018-02-20T12:26:31.108Z,11.50
2018-02-20T12:28:59.925Z,11.63
2018-02-20T12:31:28.852Z,11.91
2018-02-20T12:33:58.168Z,11.52
2018-02-20T12:36:27.542Z,10.97
2018-02-20T12:38:56.100Z,10.77
2018-02-20T12:41:24.657Z,10.70
2018-02-20T12:43:53.392Z,11.29
2018-02-20T12:46:21.972Z,11.18
2018-02-20T12:48:50.544Z,11.20
2018-02-20T12:51:19.149Z,11.39
2018-02-20T12:53:47.714Z,11.21
2018-02-20T12:56:16.268Z,11.85
2018-02-20T12:58:44.884Z,12.04
2018-02-20T13:01:13.434Z,11.89
2018-02-20T13:03:42.041Z,11.93
2018-02-20T13:06:11.452Z,11.85
2018-02-20T13:08:40.009Z,11.91
2018-02-20T13:11:08.562Z,11.93
2018-02-20T13:13:37.165Z,11.95
2018-02-20T14:07:14.419Z,12.05
2018-02-20T14:09:42.983Z,12.16
2018-02-20T14:12:11.528Z,12.18
2018-02-20T14:14:40.354Z,12.08
2018-02-20T14:17:08.904Z,12.36
2018-02-20T14:19:37.461Z,12.13
2018-02-20T14:22:06.067Z,12.43
2018-02-20T14:24:34.648Z,12.15
2018-02-20T14:27:03.968Z,12.43
2018-02-20T14:29:32.795Z,12.61
2018-02-20T14:32:01.346Z,12.60
2018-02-20T14:34:29.901Z,12.24
2018-02-20T14:36:59.413Z,12.25
2018-02-20T14:39:27.966Z,12.58
2018-02-20T14:41:56.513Z,12.50
2018-02-20T14:44:25.257Z,12.87
2018-02-20T14:46:53.813Z,12.70
2018-02-20T14:49:23.133Z,12.96
2018-02-20T14:51:51.825Z,12.90
2018-02-20T14:54:20.372Z,12.83
2018-02-20T14:56:48.976Z,13.28
2018-02-20T14:59:17.744Z,13.37
2018-02-20T15:01:47.072Z,13.64
2018-02-20T15:04:15.692Z,13.58
2018-02-20T15:06:44.301Z,13.48
2018-02-20T15:09:12.864Z,13.50
2018-02-20T15:11:41.420Z,13.44
2018-02-20T15:14:10.229Z,13.53
2018-02-20T15:16:38.789Z,13.35
2018-02-20T15:19:07.341Z,13.32
2018-02-20T15:21:36.706Z,13.49
2018-02-20T15:24:05.364Z,13.34
2018-02-20T15:26:33.926Z,13.24
2018-02-20T15:29:02.857Z,13.52
2018-02-20T15:31:31.416Z,13.50
2018-02-20T15:33:59.977Z,13.46
2018-02-20T15:36:28.585Z,13.26
2018-02-20T15:38:57.147Z,13.28
2018-02-20T15:41:25.718Z,13.55
2018-02-20T15:43:54.568Z,13.43
2018-02-20T15:46:23.945Z,13.22
2018-02-20T15:48:52.508Z,13.04
2018-02-20T15:51:21.328Z,13.16
2018-02-20T15:53:49.928Z,12.92
2018-02-20T15:56:18.481Z,12.73
2018-02-20T15:58:47.390Z,12.90
2018-02-20T16:01:15.960Z,13.31
2018-02-20T16:03:44.837Z,13.28
2018-02-20T16:06:13.638Z,13.23
2018-02-20T16:08:42.196Z,13.18
2018-02-20T16:11:10.762Z,12.77
2018-02-20T16:13:39.407Z,12.64
2018-02-20T16:16:11.937Z,13.17
2018-02-20T16:18:40.858Z,13.36
2018-02-20T16:21:09.425Z,13.21
2018-02-20T16:23:38.021Z,12.10
2018-02-20T16:26:06.644Z,12.03
2018-02-20T16:28:35.208Z,12.67
2018-02-20T16:31:04.534Z,13.01
2018-02-20T16:33:33.351Z,11.74
2018-02-20T16:36:02.196Z,12.07
2018-02-20T16:38:30.755Z,12.02
2018-02-20T16:40:59.700Z,12.32
2018-02-20T16:43:29.025Z,12.40
2018-02-20T16:45:58.525Z,13.08
2018-02-20T16:48:27.151Z,12.71
2018-02-20T16:50:55.722Z,12.89
2018-02-20T16:53:24.278Z,12.87
2018-02-20T16:55:52.926Z,12.98
2018-02-20T16:58:22.258Z,12.85
2018-02-20T17:00:50.821Z,12.83
2018-02-20T17:03:20.383Z,12.71
2018-02-20T17:05:48.945Z,12.53
2018-02-20T17:08:17.521Z,12.19
2018-02-20T17:10:46.343Z,12.25
2018-02-20T17:13:14.940Z,12.36
2018-02-20T17:15:43.510Z,12.10
2018-02-20T17:18:12.195Z,12.18
2018-02-20T17:20:40.771Z,12.35
2018-02-20T17:23:10.226Z,12.63
2018-02-20T17:25:39.600Z,12.13
2018-02-20T17:28:08.941Z,11.87
2018-02-20T17:30:37.522Z,11.64
2018-02-20T17:33:06.369Z,12.25
2018-02-20T17:35:34.945Z,12.28
2018-02-20T17:38:03.518Z,12.14
2018-02-20T17:40:32.131Z,11.92
2018-02-20T17:43:00.709Z,12.04
2018-02-20T17:45:29.293Z,12.00
2018-02-20T17:47:57.914Z,11.79
2018-02-20T17:50:26.533Z,11.50
2018-02-20T17:52:55.104Z,11.05
2018-02-20T17:55:23.723Z,11.50
2018-02-20T17:57:52.313Z,11.39
2018-02-20T18:00:20.881Z,11.27
2018-02-20T18:02:49.895Z,11.45
2018-02-20T18:05:19.234Z,11.43
2018-02-20T18:07:47.813Z,11.34
2018-02-20T18:10:16.452Z,11.40
2018-02-20T18:12:45.018Z,11.25
2018-02-20T18:15:13.585Z,11.11
2018-02-20T18:17:42.197Z,11.06
2018-02-20T18:20:10.762Z,11.05
2018-02-20T18:22:39.727Z,11.06
2018-02-20T18:25:08.372Z,11.08
2018-02-20T18:27:38.441Z,10.95
2018-02-20T18:30:07.021Z,11.01
2018-02-20T18:32:35.630Z,10.98
2018-02-20T18:35:04.217Z,10.92
2018-02-20T18:37:32.799Z,11.11
2018-02-20T18:40:01.570Z,10.86
2018-02-20T18:42:30.137Z,11.46
2018-02-20T18:44:58.704Z,11.66
2018-02-20T18:47:27.941Z,11.44
2018-02-20T18:49:56.520Z,11.33
2018-02-20T18:52:25.124Z,11.60
2018-02-20T18:54:54.459Z,11.56
2018-02-20T18:57:23.785Z,11.37
2018-02-20T18:59:53.099Z,11.44
2018-02-20T19:02:21.710Z,11.99
2018-02-20T19:04:50.265Z,11.87
2018-02-20T19:07:18.822Z,11.75
2018-02-20T19:09:48.284Z,11.57
2018-02-20T19:12:18.530Z,11.87
2018-02-20T19:14:47.869Z,11.86
2018-02-20T19:17:17.615Z,11.22
2018-02-20T19:19:46.944Z,11.48
2018-02-20T19:22:15.505Z,11.46
2018-02-20T19:24:44.483Z,11.47
2018-02-20T19:27:13.039Z,11.30
2018-02-20T19:29:41.661Z,11.53
2018-02-20T19:32:11.028Z,11.48
2018-02-20T19:34:39.608Z,11.44
2018-02-20T19:37:08.180Z,11.68
2018-02-20T19:39:36.785Z,11.48
2018-02-20T19:42:05.353Z,11.62
2018-02-20T19:44:33.936Z,11.54
2018-02-20T19:47:02.638Z,11.65
2018-02-20T19:49:31.200Z,11.43
2018-02-20T19:52:00.524Z,11.89
2018-02-20T19:54:29.505Z,11.51
2018-02-20T19:56:58.068Z,11.55
2018-02-20T19:59:26.625Z,11.66
2018-02-20T20:01:55.236Z,11.35
2018-02-20T20:04:24.569Z,11.78
2018-02-20T20:06:53.157Z,11.85
2018-02-20T20:09:21.765Z,11.28
2018-02-20T20:11:50.321Z,11.31
2018-02-20T20:14:19.245Z,11.22
2018-02-20T20:16:47.845Z,11.67
2018-02-20T20:19:17.244Z,11.48
2018-02-20T20:21:45.809Z,11.77
2018-02-20T20:24:15.211Z,11.59
2018-02-20T20:26:43.769Z,11.86
2018-02-20T20:29:12.333Z,11.22
2018-02-20T20:31:41.165Z,11.51
2018-02-20T20:34:09.720Z,11.24
2018-02-20T20:36:38.277Z,11.48
2018-02-20T20:39:07.837Z,11.39
2018-02-20T20:41:36.425Z,11.24
2018-02-20T20:44:04.986Z,11.52
2018-02-20T20:46:33.689Z,11.33
2018-02-20T20:49:02.241Z,11.45
2018-02-20T20:51:30.808Z,11.50
2018-02-20T20:54:00.360Z,11.62
2018-02-20T20:56:28.917Z,11.30
2018-02-20T20:58:57.469Z,11.35
2018-02-20T21:01:27.248Z,11.72
2018-02-20T21:03:55.816Z,11.24
2018-02-20T21:06:24.371Z,11.34
2018-02-20T21:08:52.988Z,11.60
2018-02-20T21:11:21.548Z,11.48
2018-02-20T21:13:50.100Z,11.41
2018-02-20T21:16:19.672Z,11.55
2018-02-20T21:18:48.261Z,11.33
2018-02-20T21:21:16.828Z,11.29
2018-02-20T21:23:47.257Z,11.19
2018-02-20T21:26:16.746Z,11.31
2018-02-20T21:28:45.302Z,11.40
2018-02-20T21:31:14.669Z,11.34
2018-02-20T21:33:43.226Z,11.08
2018-02-20T21:36:11.776Z,11.11
2018-02-20T21:38:40.521Z,10.68
2018-02-20T21:41:09.105Z,10.81
2018-02-20T21:43:37.665Z,11.01
2018-02-20T21:46:06.264Z,11.11
2018-02-20T21:48:34.828Z,10.84
2018-02-20T21:51:03.381Z,11.11
2018-02-20T21:53:32.075Z,10.92
2018-02-20T21:56:00.621Z,11.04
2018-02-20T21:58:29.936Z,11.25
2018-02-20T22:00:59.313Z,11.13
2018-02-20T22:03:28.637Z,11.46
2018-02-20T22:05:57.957Z,11.49
2018-02-20T22:08:26.697Z,11.10
2018-02-20T22:10:55.260Z,11.21
2018-02-20T22:13:24.741Z,11.18
2018-02-20T22:15:53.356Z,11.43
2018-02-20T22:18:22.678Z,11.17
2018-02-20T22:20:51.253Z,10.76
2018-02-20T22:23:19.870Z,11.22
2018-02-20T22:25:48.421Z,11.32
2018-02-20T22:28:16.981Z,11.51
2018-02-20T22:30:45.583Z,11.31
2018-02-20T22:33:14.144Z,11.24
2018-02-20T22:35:42.700Z,10.93
2018-02-20T22:38:11.308Z,11.18
2018-02-20T22:40:39.864Z,11.36
2018-02-20T22:43:08.411Z,11.22
2018-02-20T22:45:37.792Z,11.37
2018-02-20T22:48:06.341Z,11.22
2018-02-20T22:50:34.897Z,11.13
2018-02-20T22:53:03.640Z,11.36
2018-02-20T22:55:32.197Z,11.33
2018-02-20T22:58:00.744Z,11.34
2018-02-20T23:00:30.109Z,11.23
2018-02-20T23:02:58.657Z,11.12
2018-02-20T23:05:27.210Z,11.07
2018-02-20T23:07:56.581Z,11.02
2018-02-20T23:10:25.136Z,11.13
2018-02-20T23:12:53.685Z,10.97
2018-02-20T23:15:22.442Z,10.94
2018-02-20T23:17:50.996Z,11.25
2018-02-20T23:20:19.549Z,11.34
2018-02-20T23:22:48.318Z,11.45
2018-02-20T23:25:17.636Z,10.73
2018-02-20T23:27:46.180Z,11.15
2018-02-20T23:30:14.861Z,11.08
2018-02-20T23:32:43.422Z,10.57
2018-02-20T23:35:11.977Z,11.02
2018-02-20T23:37:40.857Z,11.13
2018-02-20T23:40:09.415Z,11.04
2018-02-20T23:42:38.740Z,10.82
2018-02-20T23:45:07.365Z,10.99
2018-02-20T23:47:35.924Z,11.10
2018-02-20T23:50:04.470Z,10.65
2018-02-20T23:52:33.924Z,10.98
2018-02-20T23:55:02.484Z,10.91
2018-02-20T23:57:31.033Z,11.17
2018-02-20T23:59:59.884Z,11.25
